Time;durP1;ratioP1;P1;durP2;ratioP2;P2;SDS_P1;SDS_P2;PMS_P1;PMS_P2;Temp;Humidity;BMP_temperature;BMP_pressure;BME280_temperature;BME280_humidity;BME280_pressure;Samples;Min_cycle;Max_cycle;Signal;HPM_P1;HPM_P2
2022/05/03 00:01:55;;;;;;;11.35;6.20;;;15.20;63.70;;;;;;5013130;28;20033;-17
2022/05/03 00:04:53;;;;;;;9.02;6.22;;;15.20;63.30;;;;;;5012942;28;20474;-16
2022/05/03 00:07:44;;;;;;;10.98;6.95;;;15.20;63.40;;;;;;5012966;28;20018;-17
2022/05/03 00:10:24;;;;;;;9.48;7.00;;;15.20;64.30;;;;;;5013385;28;20029;-16
2022/05/03 00:13:05;;;;;;;11.50;6.72;;;15.10;64.40;;;;;;5013039;28;20436;-16
2022/05/03 00:15:34;;;;;;;8.82;5.78;;;15.10;64.60;;;;;;5013236;28;20057;-17
2022/05/03 00:18:02;;;;;;;9.70;6.47;;;15.10;64.30;;;;;;5013588;28;20022;-18
2022/05/03 00:20:29;;;;;;;8.90;5.75;;;15.00;64.50;;;;;;5012725;28;20061;-17
2022/05/03 00:22:56;;;;;;;10.32;6.47;;;15.00;64.40;;;;;;5012689;28;20041;-16
2022/05/03 00:25:22;;;;;;;10.80;7.03;;;15.00;64.30;;;;;;5012980;28;20045;-18
2022/05/03 00:27:51;;;;;;;10.98;7.30;;;14.90;64.30;;;;;;5013085;28;20563;-16
2022/05/03 00:30:17;;;;;;;10.68;5.97;;;14.90;64.10;;;;;;5013085;28;20029;-16
2022/05/03 00:32:43;;;;;;;7.95;5.60;;;14.90;64.00;;;;;;5017128;28;20501;-16
2022/05/03 00:35:10;;;;;;;9.07;5.40;;;14.90;64.00;;;;;;5016588;28;20133;-16
2022/05/03 00:37:36;;;;;;;9.48;5.65;;;14.90;63.90;;;;;;5016643;28;20040;-17
2022/05/03 00:40:05;;;;;;;9.80;6.13;;;14.90;64.00;;;;;;5016644;28;20076;-18
2022/05/03 00:42:55;;;;;;;8.00;5.78;;;14.90;64.00;;;;;;5016055;28;20033;-16
2022/05/03 00:45:55;;;;;;;9.75;6.13;;;14.90;64.20;;;;;;5016407;28;20065;-18
2022/05/03 00:48:43;;;;;;;11.27;6.88;;;14.90;64.50;;;;;;5016141;28;20034;-17
2022/05/03 00:51:15;;;;;;;10.35;6.78;;;14.90;64.20;;;;;;5016404;28;20021;-17
2022/05/03 00:54:10;;;;;;;9.27;6.45;;;14.90;64.30;;;;;;5016433;28;20025;-18
2022/05/03 00:57:15;;;;;;;9.15;5.80;;;14.90;64.40;;;;;;5016172;28;20389;-16
2022/05/03 01:00:10;;;;;;;9.00;5.60;;;14.90;64.20;;;;;;5016659;28;20465;-17
2022/05/03 01:02:57;;;;;;;9.43;5.88;;;14.90;64.40;;;;;;5015938;28;20030;-17
2022/05/03 01:05:28;;;;;;;8.98;6.07;;;14.90;64.30;;;;;;5015821;28;20505;-16
2022/05/03 01:08:07;;;;;;;7.72;5.30;;;14.90;64.30;;;;;;5015943;28;20033;-17
2022/05/03 01:11:02;;;;;;;11.27;6.85;;;14.80;64.40;;;;;;5015690;28;20014;-17
2022/05/03 01:13:34;;;;;;;8.82;5.40;;;14.80;64.70;;;;;;5015786;28;20482;-17
2022/05/03 01:16:07;;;;;;;9.25;5.80;;;14.80;64.30;;;;;;5015874;28;20034;-18
2022/05/03 01:19:01;;;;;;;9.52;6.07;;;14.80;64.40;;;;;;5015526;28;20108;-17
2022/05/03 01:22:03;;;;;;;8.70;5.77;;;14.80;64.40;;;;;;5014149;28;20057;-17
2022/05/03 01:24:50;;;;;;;8.38;5.25;;;14.70;64.60;;;;;;5015385;28;20752;-17
2022/05/03 01:27:31;;;;;;;10.02;6.50;;;14.60;64.70;;;;;;5015767;28;20030;-17
2022/05/03 01:29:59;;;;;;;9.02;6.40;;;14.60;64.60;;;;;;5015404;28;20022;-17
2022/05/03 01:32:26;;;;;;;9.05;5.70;;;14.50;64.70;;;;;;5015094;28;20026;-16
2022/05/03 01:34:55;;;;;;;10.30;6.45;;;14.50;64.80;;;;;;5015559;28;20018;-17
2022/05/03 01:37:34;;;;;;;7.63;5.18;;;14.40;65.00;;;;;;5015212;28;20030;-17
2022/05/03 01:40:11;;;;;;;8.63;5.43;;;14.40;65.10;;;;;;5015365;28;20029;-16
2022/05/03 01:42:49;;;;;;;12.88;7.80;;;14.30;65.30;;;;;;5014391;28;20499;-15
2022/05/03 01:45:27;;;;;;;8.98;5.53;;;14.30;65.40;;;;;;5015052;28;20045;-16
2022/05/03 01:48:08;;;;;;;10.02;5.95;;;14.20;65.50;;;;;;5015508;28;20053;-18
2022/05/03 01:50:59;;;;;;;9.55;6.47;;;14.10;65.60;;;;;;5013554;28;20033;-16
2022/05/03 01:53:43;;;;;;;8.60;5.82;;;14.10;66.10;;;;;;5015229;28;20033;-17
2022/05/03 01:56:14;;;;;;;8.50;4.70;;;14.10;65.60;;;;;;5015127;28;20023;-17
2022/05/03 01:58:40;;;;;;;7.60;5.53;;;14.00;65.70;;;;;;5013610;28;20686;-17
2022/05/03 02:01:28;;;;;;;10.57;6.55;;;14.00;66.00;;;;;;5015122;28;20485;-16
2022/05/03 02:04:04;;;;;;;11.02;6.55;;;13.90;66.10;;;;;;5014772;28;20389;-16
2022/05/03 02:06:54;;;;;;;8.48;5.68;;;13.90;66.10;;;;;;5014526;28;20025;-17
2022/05/03 02:09:45;;;;;;;9.18;5.97;;;13.80;66.40;;;;;;5015066;28;20030;-14
2022/05/03 02:12:15;;;;;;;10.25;6.72;;;13.80;66.60;;;;;;5014848;28;20018;-17
2022/05/03 02:14:55;;;;;;;7.93;5.13;;;13.80;66.70;;;;;;5013352;28;20397;-17
2022/05/03 02:18:10;;;;;;;7.43;5.63;;;13.70;66.90;;;;;;5014934;28;20033;-17
2022/05/03 02:20:54;;;;;;;9.05;6.30;;;13.60;66.90;;;;;;4954757;29;20035;-17
2022/05/03 02:23:39;;;;;;;11.73;7.00;;;13.60;67.00;;;;;;4953941;29;20042;-17
2022/05/03 02:26:22;;;;;;;10.85;7.28;;;13.60;67.30;;;;;;4954197;29;20036;-17
2022/05/03 02:28:56;;;;;;;10.30;7.40;;;13.60;67.20;;;;;;4953993;29;20595;-16
2022/05/03 02:31:43;;;;;;;11.55;7.50;;;13.50;67.50;;;;;;4953962;29;20039;-17
2022/05/03 02:34:27;;;;;;;10.60;7.45;;;13.50;67.60;;;;;;4953943;29;20027;-17
2022/05/03 02:36:58;;;;;;;;;;;13.50;67.70;;;;;;4954142;29;20035;-18
2022/05/03 02:39:29;;;;;;;13.65;7.95;;;13.50;68.40;;;;;;4953741;29;19906;-18
2022/05/03 02:41:59;;;;;;;11.32;7.85;;;13.50;67.80;;;;;;4953981;29;20546;-17
2022/05/03 02:44:33;;;;;;;11.02;7.55;;;13.40;67.80;;;;;;4953614;29;20043;-17
2022/05/03 02:47:03;;;;;;;;;;;13.40;67.80;;;;;;4954167;29;20114;-16
2022/05/03 02:49:37;;;;;;;11.63;8.00;;;13.40;68.20;;;;;;4953653;28;19906;-17
2022/05/03 02:52:31;;;;;;;10.68;7.60;;;13.30;67.90;;;;;;4953428;29;20523;-17
2022/05/03 02:55:06;;;;;;;10.35;6.93;;;13.30;68.20;;;;;;4952990;28;20051;-18
2022/05/03 02:57:53;;;;;;;14.43;8.88;;;13.20;68.10;;;;;;4997798;28;20172;-16
2022/05/03 03:03:23;;;;;;;13.80;8.57;;;13.20;68.30;;;;;;5013892;28;20185;-17
2022/05/03 03:06:01;;;;;;;13.90;8.38;;;13.10;68.50;;;;;;5013903;28;20030;-17
2022/05/03 03:08:42;;;;;;;11.98;7.47;;;12.90;68.70;;;;;;5013440;28;20025;-17
2022/05/03 03:11:15;;;;;;;14.43;8.13;;;12.90;68.90;;;;;;5013892;28;20030;-16
2022/05/03 03:14:15;;;;;;;12.32;8.00;;;12.80;69.10;;;;;;5014334;28;20033;-18
2022/05/03 03:16:51;;;;;;;11.98;7.38;;;12.70;69.60;;;;;;5013635;28;20473;-19
2022/05/03 03:19:38;;;;;;;11.07;6.72;;;12.60;69.50;;;;;;5013860;28;20018;-16
2022/05/03 03:22:11;;;;;;;11.75;7.93;;;12.50;70.00;;;;;;5013232;28;20052;-17
2022/05/03 03:24:39;;;;;;;10.30;6.45;;;12.50;70.10;;;;;;5013196;28;20029;-18
2022/05/03 03:27:12;;;;;;;11.50;6.70;;;12.40;70.00;;;;;;5013854;28;20026;-17
2022/05/03 03:29:39;;;;;;;12.35;6.93;;;12.40;70.10;;;;;;5013426;28;20026;-17
2022/05/03 03:32:08;;;;;;;10.85;6.57;;;12.40;70.60;;;;;;5013301;28;20030;-16
2022/05/03 03:34:40;;;;;;;8.70;6.07;;;12.30;70.50;;;;;;5013446;28;20041;-17
2022/05/03 03:37:07;;;;;;;10.87;7.23;;;12.20;70.40;;;;;;5013620;28;20034;-19
2022/05/03 03:39:36;;;;;;;11.65;7.32;;;12.20;71.00;;;;;;5013244;28;20029;-16
2022/05/03 03:42:03;;;;;;;9.45;6.40;;;12.20;71.30;;;;;;5013185;28;20457;-17
2022/05/03 03:44:30;;;;;;;8.88;5.97;;;12.00;70.80;;;;;;5012899;28;20049;-16
2022/05/03 03:47:00;;;;;;;9.98;6.68;;;12.10;71.00;;;;;;5012040;28;20450;-16
2022/05/03 03:49:29;;;;;;;12.45;7.03;;;12.00;71.20;;;;;;5013316;28;20071;-17
2022/05/03 03:51:57;;;;;;;11.98;6.90;;;11.90;71.20;;;;;;5011804;28;20018;-16
2022/05/03 03:54:24;;;;;;;8.98;6.30;;;11.90;71.40;;;;;;5012963;28;20018;-17
2022/05/03 03:56:52;;;;;;;12.70;8.00;;;11.90;71.40;;;;;;5013371;28;20523;-16
2022/05/03 03:59:19;;;;;;;10.43;7.10;;;11.80;71.80;;;;;;5013245;28;20036;-18
2022/05/03 04:01:48;;;;;;;10.88;7.40;;;11.80;72.10;;;;;;5013383;28;20026;-16
2022/05/03 04:04:17;;;;;;;9.18;6.65;;;11.60;72.20;;;;;;5012933;28;20026;-19
2022/05/03 04:06:42;;;;;;;11.10;7.18;;;11.50;72.40;;;;;;5015912;28;20038;-18
2022/05/03 04:09:09;;;;;;;10.15;6.43;;;11.50;72.60;;;;;;5016994;28;20033;-17
2022/05/03 04:11:47;;;;;;;10.75;6.15;;;11.40;72.60;;;;;;5017252;28;20481;-16
2022/05/03 04:14:14;;;;;;;10.95;7.00;;;11.40;72.60;;;;;;5017215;28;20101;-17
2022/05/03 04:16:41;;;;;;;11.02;6.95;;;11.40;73.10;;;;;;5017048;28;20396;-18
2022/05/03 04:19:08;;;;;;;11.32;7.22;;;11.40;73.20;;;;;;5017317;28;20406;-16
2022/05/03 04:21:34;;;;;;;12.02;6.85;;;11.30;73.50;;;;;;5016387;28;20433;-17
2022/05/03 04:24:00;;;;;;;12.07;7.03;;;11.30;73.50;;;;;;5017021;28;20038;-18
2022/05/03 04:26:27;;;;;;;12.05;7.72;;;11.30;73.60;;;;;;5016704;28;20540;-19
2022/05/03 04:29:00;;;;;;;12.57;8.20;;;11.30;73.50;;;;;;5016772;28;20050;-16
2022/05/03 04:31:30;;;;;;;12.35;7.22;;;11.20;73.30;;;;;;5017758;28;20045;-17
2022/05/03 04:33:57;;;;;;;14.80;8.48;;;11.20;73.50;;;;;;5016874;28;20028;-16
2022/05/03 04:36:25;;;;;;;12.55;7.88;;;11.30;73.40;;;;;;5016385;28;20018;-20
2022/05/03 04:38:52;;;;;;;10.82;6.97;;;11.30;73.30;;;;;;5017000;28;20018;-16
2022/05/03 04:41:25;;;;;;;13.38;8.13;;;11.30;73.20;;;;;;5016739;28;20037;-18
2022/05/03 04:43:51;;;;;;;13.15;7.07;;;11.40;73.30;;;;;;5016265;28;20072;-16
2022/05/03 04:46:18;;;;;;;12.35;7.95;;;11.40;73.60;;;;;;5016016;28;20041;-14
2022/05/03 04:48:44;;;;;;;10.32;6.93;;;11.50;73.80;;;;;;5016204;28;20367;-16
2022/05/03 04:51:18;;;;;;;13.27;7.20;;;11.60;73.70;;;;;;5016481;28;20113;-18
2022/05/03 04:53:44;;;;;;;;;;;11.70;73.50;;;;;;5016533;28;20068;-18
2022/05/03 04:56:16;;;;;;;8.75;5.93;;;11.80;74.40;;;;;;5016366;28;19905;-17
2022/05/03 04:58:42;;;;;;;12.68;6.95;;;11.90;73.10;;;;;;5016346;28;20048;-18
2022/05/03 05:01:08;;;;;;;14.77;6.93;;;11.90;73.90;;;;;;5016096;28;20061;-18
2022/05/03 05:03:34;;;;;;;15.95;10.15;;;12.00;72.60;;;;;;5015887;28;20036;-16
2022/05/03 05:06:00;;;;;;;12.70;8.98;;;12.20;72.30;;;;;;5014947;28;20105;-17
2022/05/03 05:08:26;;;;;;;14.23;7.45;;;12.30;72.00;;;;;;5015554;28;20107;-17
2022/05/03 05:10:52;;;;;;;10.57;7.47;;;12.40;71.60;;;;;;5014551;28;20025;-17
2022/05/03 05:13:17;;;;;;;14.88;9.48;;;12.50;71.60;;;;;;5016258;28;20040;-17
2022/05/03 05:15:43;;;;;;;15.75;9.23;;;12.60;71.70;;;;;;5016215;28;20542;-17
2022/05/03 05:18:09;;;;;;;17.05;9.60;;;12.80;71.10;;;;;;5014891;28;20025;-17
2022/05/03 05:20:35;;;;;;;16.33;9.70;;;12.90;70.80;;;;;;5015514;28;20117;-18
2022/05/03 05:23:01;;;;;;;11.18;7.63;;;13.00;70.80;;;;;;5015365;28;20050;-18
2022/05/03 05:25:27;;;;;;;13.43;8.68;;;13.10;70.60;;;;;;5015840;28;20037;-17
2022/05/03 05:27:52;;;;;;;11.23;7.28;;;13.30;70.30;;;;;;5015781;28;20076;-17
2022/05/03 05:30:18;;;;;;;11.65;8.27;;;13.40;70.10;;;;;;5015451;28;20065;-18
2022/05/03 05:32:44;;;;;;;13.45;9.18;;;13.50;70.10;;;;;;5015255;28;20578;-17
2022/05/03 05:35:12;;;;;;;13.07;8.20;;;13.60;70.00;;;;;;5015619;28;20029;-17
2022/05/03 05:37:38;;;;;;;9.88;7.03;;;13.80;69.90;;;;;;5015138;28;20037;-17
2022/05/03 05:40:04;;;;;;;10.82;7.68;;;13.90;69.70;;;;;;5015212;28;20029;-16
2022/05/03 05:42:30;;;;;;;11.05;7.45;;;14.10;69.50;;;;;;5014994;28;20026;-19
2022/05/03 05:44:56;;;;;;;11.35;7.97;;;14.30;69.50;;;;;;5015284;28;20029;-16
2022/05/03 05:47:22;;;;;;;11.63;7.45;;;14.40;69.00;;;;;;5015320;28;20493;-18
2022/05/03 05:49:48;;;;;;;11.07;7.38;;;14.60;69.00;;;;;;5015065;28;20025;-15
2022/05/03 05:54:58;;;;;;;;;;;14.90;69.10;;;;;;5015535;28;20037;-17
2022/05/03 05:57:23;;;;;;;12.27;8.35;;;15.20;68.80;;;;;;5015256;28;19909;-15
2022/05/03 05:59:49;;;;;;;13.57;8.23;;;15.30;69.00;;;;;;5014856;28;20374;-14
2022/05/03 06:02:15;;;;;;;11.40;7.25;;;15.50;68.60;;;;;;5015012;28;20072;-15
2022/05/03 06:04:41;;;;;;;12.20;6.63;;;15.70;68.80;;;;;;5014625;28;20367;-17
2022/05/03 06:07:07;;;;;;;10.52;7.70;;;15.90;68.80;;;;;;5014700;28;20113;-14
2022/05/03 06:09:36;;;;;;;11.82;7.53;;;16.20;68.00;;;;;;5015285;28;20060;-19
2022/05/03 06:12:02;;;;;;;10.65;7.32;;;16.40;67.60;;;;;;5014648;28;20398;-15
2022/05/03 06:14:28;;;;;;;9.07;6.78;;;16.70;66.50;;;;;;5014300;28;20022;-18
2022/05/03 06:16:56;;;;;;;10.35;6.63;;;17.00;66.20;;;;;;5014483;28;20025;-18
2022/05/03 06:19:23;;;;;;;11.65;6.60;;;17.30;66.10;;;;;;5014756;28;20026;-16
2022/05/03 06:21:49;;;;;;;9.15;5.80;;;17.60;66.00;;;;;;5014339;28;20061;-17
2022/05/03 06:24:16;;;;;;;10.68;7.60;;;17.90;65.20;;;;;;5014775;28;20044;-17
2022/05/03 06:26:44;;;;;;;11.48;6.80;;;18.20;64.10;;;;;;5014982;28;20052;-18
2022/05/03 06:29:11;;;;;;;8.38;5.88;;;18.40;63.50;;;;;;5014053;28;20038;-17
2022/05/03 06:31:42;;;;;;;13.52;7.78;;;18.70;63.20;;;;;;5014528;28;20025;-17
2022/05/03 06:34:08;;;;;;;8.43;5.85;;;19.00;62.20;;;;;;5014321;28;20025;-17
2022/05/03 06:36:37;;;;;;;10.02;5.90;;;19.20;61.20;;;;;;5013906;28;20500;-17
2022/05/03 06:39:04;;;;;;;11.07;7.07;;;19.40;60.70;;;;;;5014433;28;20022;-17
2022/05/03 06:41:34;;;;;;;12.18;8.00;;;19.90;60.20;;;;;;5014472;28;20109;-17
2022/05/03 06:44:00;;;;;;;10.18;7.18;;;20.20;58.90;;;;;;5012799;28;20029;-15
2022/05/03 06:46:27;;;;;;;10.40;6.32;;;20.60;58.00;;;;;;5014089;28;20058;-17
2022/05/03 06:48:54;;;;;;;8.95;5.60;;;20.90;57.60;;;;;;5013960;28;20363;-16
2022/05/03 06:51:21;;;;;;;11.63;6.80;;;21.40;57.20;;;;;;5014196;28;20026;-18
2022/05/03 06:53:47;;;;;;;8.63;6.65;;;21.70;55.80;;;;;;5013793;28;20057;-17
2022/05/03 06:56:14;;;;;;;7.82;5.53;;;22.10;55.30;;;;;;5013872;28;20389;-17
2022/05/03 06:58:41;;;;;;;7.82;5.85;;;22.40;54.30;;;;;;5014082;28;20033;-16
2022/05/03 07:01:09;;;;;;;10.52;6.85;;;22.90;53.60;;;;;;5013695;28;20060;-16
2022/05/03 07:03:36;;;;;;;6.35;4.93;;;23.30;52.40;;;;;;5013959;28;20089;-18
2022/05/03 07:06:02;;;;;;;10.98;6.47;;;23.60;51.80;;;;;;5013904;28;20046;-16
2022/05/03 07:08:29;;;;;;;7.63;4.80;;;23.90;51.10;;;;;;5013455;28;20497;-17
2022/05/03 07:10:55;;;;;;;8.68;5.95;;;24.10;50.20;;;;;;5014124;28;20478;-17
2022/05/03 07:13:23;;;;;;;8.88;5.45;;;24.20;48.80;;;;;;5013828;28;20482;-17
2022/05/03 07:15:51;;;;;;;8.85;5.47;;;24.50;48.70;;;;;;5013888;28;20029;-15
2022/05/03 07:23:45;;;;;;;10.15;6.60;;;25.30;46.20;;;;;;5014066;28;20449;-16
2022/05/03 07:26:11;;;;;;;7.63;5.82;;;25.40;44.00;;;;;;5014000;28;20478;-18
2022/05/03 07:28:38;;;;;;;9.98;6.47;;;25.30;43.50;;;;;;5013517;28;20033;-17
2022/05/03 07:31:04;;;;;;;9.93;6.50;;;25.40;43.80;;;;;;5013696;28;20030;-16
2022/05/03 07:33:30;;;;;;;9.30;6.22;;;25.50;43.40;;;;;;5013378;28;20485;-16
2022/05/03 07:35:57;;;;;;;12.52;6.70;;;25.50;42.40;;;;;;5013513;28;20025;-18
2022/05/03 07:38:23;;;;;;;8.65;6.03;;;25.40;41.90;;;;;;5013152;28;20054;-17
2022/05/03 07:40:49;;;;;;;9.15;6.80;;;25.30;42.70;;;;;;5012783;28;20030;-17
2022/05/03 07:43:15;;;;;;;13.25;6.30;;;25.20;42.80;;;;;;5013396;28;20084;-16
2022/05/03 07:45:41;;;;;;;9.65;6.68;;;25.00;43.40;;;;;;5013475;28;20030;-17
2022/05/03 07:48:07;;;;;;;8.57;6.63;;;24.90;43.40;;;;;;5012036;28;20497;-16
2022/05/03 07:50:33;;;;;;;9.70;6.75;;;24.90;41.30;;;;;;5013042;28;20028;-17
2022/05/03 07:52:59;;;;;;;10.65;6.90;;;24.80;43.80;;;;;;5011715;28;20405;-16
2022/05/03 07:55:25;;;;;;;9.80;6.20;;;24.90;43.10;;;;;;5013262;28;20470;-15
2022/05/03 07:57:51;;;;;;;9.32;5.47;;;24.90;44.20;;;;;;5013198;28;20033;-17
2022/05/03 08:00:17;;;;;;;7.95;5.50;;;24.90;44.00;;;;;;5012977;28;20025;-16
2022/05/03 08:02:43;;;;;;;9.15;5.30;;;24.90;43.10;;;;;;5012959;28;20036;-17
2022/05/03 08:05:10;;;;;;;11.95;6.00;;;24.90;43.90;;;;;;5013096;28;20026;-17
2022/05/03 08:07:37;;;;;;;7.88;5.68;;;25.20;43.00;;;;;;5012991;28;20026;-17
2022/05/03 08:10:04;;;;;;;9.63;5.05;;;25.30;43.30;;;;;;5012989;28;20056;-15
2022/05/03 08:12:30;;;;;;;10.50;5.55;;;25.40;42.80;;;;;;5012892;28;20044;-17
2022/05/03 08:14:56;;;;;;;7.18;4.90;;;25.40;40.40;;;;;;5011829;28;20015;-16
2022/05/03 08:17:27;;;;;;;6.32;4.80;;;25.40;40.80;;;;;;5012923;28;20109;-17
2022/05/03 08:19:54;;;;;;;6.72;4.70;;;25.40;41.90;;;;;;5013203;28;20029;-17
2022/05/03 08:22:20;;;;;;;5.93;4.20;;;25.60;41.90;;;;;;5012490;28;20050;-16
2022/05/03 08:24:46;;;;;;;6.57;4.53;;;25.60;40.40;;;;;;5013444;28;20045;-16
2022/05/03 08:27:12;;;;;;;7.60;4.97;;;25.70;41.10;;;;;;5013001;28;20025;-18
2022/05/03 08:29:38;;;;;;;5.97;4.25;;;25.80;41.40;;;;;;5013103;28;20025;-17
2022/05/03 08:32:05;;;;;;;6.53;4.57;;;25.90;41.50;;;;;;5012865;28;20030;-16
2022/05/03 08:34:31;;;;;;;7.53;4.43;;;25.70;39.70;;;;;;5011422;28;20025;-15
2022/05/03 08:42:28;;;;;;;5.97;4.43;;;25.40;40.70;;;;;;5012668;28;20500;-17
2022/05/03 08:44:56;;;;;;;5.13;4.20;;;25.40;40.80;;;;;;5012703;28;20026;-17
2022/05/03 08:47:25;;;;;;;9.30;4.72;;;25.40;40.90;;;;;;5012648;28;20508;-17
2022/05/03 08:50:01;;;;;;;7.25;4.57;;;25.50;41.10;;;;;;5012856;28;20026;-16
2022/05/03 08:52:29;;;;;;;4.72;4.10;;;25.60;40.50;;;;;;5013136;28;20108;-17
2022/05/03 08:55:00;;;;;;;6.68;4.00;;;25.90;41.10;;;;;;5016649;28;20056;-17
2022/05/03 08:57:27;;;;;;;8.07;5.07;;;26.20;39.90;;;;;;5016278;28;20505;-17
2022/05/03 08:59:54;;;;;;;8.70;4.93;;;26.20;39.70;;;;;;5016026;28;20029;-16
2022/05/03 09:02:21;;;;;;;6.60;4.25;;;26.40;39.70;;;;;;5015789;28;20029;-17
2022/05/03 09:04:47;;;;;;;5.00;3.90;;;26.50;39.90;;;;;;5015871;28;20040;-16
2022/05/03 09:07:24;;;;;;;6.10;4.22;;;26.70;39.60;;;;;;5015789;28;20030;-17
2022/05/03 09:09:52;;;;;;;6.00;4.07;;;27.00;38.10;;;;;;5016165;28;20474;-16
2022/05/03 09:12:36;;;;;;;9.77;4.03;;;27.20;37.50;;;;;;5016191;28;20040;-16
2022/05/03 09:15:02;;;;;;;7.95;4.30;;;27.20;38.20;;;;;;5015963;28;20030;-16
2022/05/03 09:17:46;;;;;;;6.43;3.95;;;27.00;37.70;;;;;;5015745;28;20022;-17
2022/05/03 09:26:14;;;;;;;9.05;4.28;;;26.80;38.70;;;;;;5015644;28;20100;-16
2022/05/03 09:28:52;;;;;;;5.80;3.60;;;27.10;38.00;;;;;;5015755;28;20105;-17
2022/05/03 09:31:36;;;;;;;4.80;3.90;;;27.20;37.50;;;;;;5015491;28;20105;-17
2022/05/03 09:34:19;;;;;;;5.18;4.13;;;27.20;37.60;;;;;;5015417;28;20116;-17
2022/05/03 09:36:51;;;;;;;7.40;4.03;;;26.90;37.60;;;;;;5015980;28;20069;-16
2022/05/03 09:39:31;;;;;;;7.78;3.90;;;26.90;37.20;;;;;;5015613;28;20080;-17
2022/05/03 09:42:13;;;;;;;6.32;3.70;;;26.90;37.20;;;;;;5015909;28;20041;-16
2022/05/03 09:44:57;;;;;;;6.47;3.90;;;27.10;37.90;;;;;;5015411;28;20060;-16
2022/05/03 09:47:26;;;;;;;5.65;3.80;;;27.20;37.30;;;;;;5015172;28;20378;-16
2022/05/03 09:49:53;;;;;;;6.93;3.72;;;27.10;38.10;;;;;;5015289;28;20489;-17
2022/05/03 09:52:30;;;;;;;4.68;3.80;;;27.30;37.70;;;;;;5015027;28;20030;-17
2022/05/03 09:55:03;;;;;;;5.63;3.80;;;27.30;35.70;;;;;;5015069;28;20401;-16
2022/05/03 09:57:31;;;;;;;7.65;4.00;;;27.30;37.60;;;;;;5015348;28;20033;-16
2022/05/03 09:59:58;;;;;;;6.75;3.90;;;27.20;37.50;;;;;;5014890;28;20111;-16
2022/05/03 10:02:28;;;;;;;4.97;3.80;;;27.30;37.30;;;;;;5014629;28;20481;-17
2022/05/03 10:04:58;;;;;;;5.38;4.00;;;27.50;37.60;;;;;;5013010;28;20084;-16
2022/05/03 10:07:26;;;;;;;5.47;3.70;;;27.90;36.00;;;;;;5014847;28;20030;-17
2022/05/03 10:09:52;;;;;;;5.05;3.60;;;28.30;35.80;;;;;;5014739;28;20022;-16
2022/05/03 10:12:19;;;;;;;5.93;3.95;;;28.60;36.10;;;;;;5014745;28;20021;-16
2022/05/03 10:14:47;;;;;;;5.03;3.70;;;28.80;36.60;;;;;;5014637;28;20022;-18
2022/05/03 10:22:48;;;;;;;6.40;3.88;;;29.50;34.20;;;;;;5014341;28;20129;-17
2022/05/03 10:25:15;;;;;;;5.05;4.00;;;29.60;34.60;;;;;;5014359;28;20022;-15
2022/05/03 10:27:59;;;;;;;6.47;3.47;;;29.70;34.80;;;;;;5014405;28;20500;-17
2022/05/03 10:30:28;;;;;;;5.00;3.67;;;30.10;33.60;;;;;;5014240;28;20032;-15
2022/05/03 10:33:23;;;;;;;6.53;3.50;;;30.00;34.40;;;;;;5014522;28;20445;-17
2022/05/03 10:35:51;;;;;;;5.93;4.00;;;30.10;34.90;;;;;;5014240;28;20030;-14
2022/05/03 10:38:43;;;;;;;5.13;3.38;;;30.30;33.80;;;;;;5013882;28;20026;-16
2022/05/03 10:41:11;;;;;;;5.45;3.40;;;30.50;33.80;;;;;;5014190;28;20112;-16
2022/05/03 10:43:39;;;;;;;5.78;3.50;;;30.90;32.80;;;;;;5014699;28;20109;-16
2022/05/03 10:46:12;;;;;;;3.75;3.42;;;31.20;31.40;;;;;;5014315;28;20508;-17
2022/05/03 10:48:41;;;;;;;8.00;3.67;;;31.40;31.10;;;;;;5014051;28;20125;-16
2022/05/03 10:51:14;;;;;;;4.72;3.10;;;31.70;31.10;;;;;;5014019;28;20022;-16
2022/05/03 10:53:41;;;;;;;4.85;3.58;;;31.70;30.50;;;;;;5013993;28;20018;-17
2022/05/03 10:56:22;;;;;;;5.22;3.45;;;32.00;31.10;;;;;;5014242;28;20034;-16
2022/05/03 10:59:10;;;;;;;5.25;3.30;;;32.40;30.40;;;;;;5014891;28;20378;-15
2022/05/03 11:01:57;;;;;;;7.63;3.75;;;32.70;30.60;;;;;;5014523;28;20022;-17
2022/05/03 11:04:25;;;;;;;5.55;3.70;;;33.00;29.30;;;;;;5013527;28;20113;-14
2022/05/03 11:06:51;;;;;;;4.00;2.92;;;33.00;29.40;;;;;;5014121;28;20363;-15
2022/05/03 11:09:32;;;;;;;5.60;3.33;;;33.20;29.50;;;;;;5013822;28;20378;-17
2022/05/03 11:12:07;;;;;;;4.60;3.38;;;33.40;28.80;;;;;;5014008;28;20029;-16
2022/05/03 11:14:34;;;;;;;5.25;3.25;;;33.60;28.00;;;;;;5013470;28;20567;-16
2022/05/03 11:17:05;;;;;;;5.88;3.40;;;33.80;27.80;;;;;;5011940;28;20030;-17
2022/05/03 11:19:49;;;;;;;4.53;3.25;;;33.90;27.90;;;;;;5095196;23;20043;-14
2022/05/03 11:22:21;;;;;;;3.47;3.13;;;33.90;27.80;;;;;;4993791;28;20031;-15
2022/05/03 11:24:49;;;;;;;5.07;3.70;;;34.10;27.80;;;;;;4992715;28;20031;-15
2022/05/03 11:27:16;;;;;;;5.20;3.50;;;34.40;27.90;;;;;;4994195;28;20355;-14
2022/05/03 11:29:46;;;;;;;4.00;3.15;;;34.50;27.30;;;;;;4994153;28;20022;-14
2022/05/03 11:32:14;;;;;;;4.22;2.72;;;34.50;27.40;;;;;;4993053;28;20027;-14
2022/05/03 11:34:41;;;;;;;4.13;3.10;;;34.70;27.70;;;;;;4993944;28;20045;-14
2022/05/03 11:37:08;;;;;;;3.20;2.90;;;34.80;25.50;;;;;;4994306;28;20027;-14
2022/05/03 11:39:38;;;;;;;5.30;3.22;;;34.60;26.40;;;;;;4993722;28;20386;-13
2022/05/03 11:42:06;;;;;;;3.63;2.90;;;34.30;26.60;;;;;;4993940;28;20037;-13
2022/05/03 11:44:33;;;;;;;5.93;3.47;;;33.70;27.50;;;;;;4993337;28;20037;-15
2022/05/03 11:47:03;;;;;;;6.32;3.72;;;33.70;28.10;;;;;;4994520;28;20030;-16
2022/05/03 11:49:31;;;;;;;5.80;3.22;;;33.90;28.20;;;;;;4994295;28;20094;-15
2022/05/03 11:57:32;;;;;;;4.80;3.40;;;34.80;27.00;;;;;;4993750;28;20104;-14
2022/05/03 11:59:59;;;;;;;4.55;3.17;;;34.80;26.50;;;;;;4993539;28;20065;-14
2022/05/03 12:02:38;;;;;;;6.93;3.13;;;34.60;26.70;;;;;;4993281;28;20108;-14
2022/05/03 12:05:07;;;;;;;3.45;2.70;;;34.60;26.60;;;;;;4993653;28;20497;-15
2022/05/03 12:07:47;;;;;;;3.78;3.20;;;35.00;26.90;;;;;;4993718;28;20108;-15
2022/05/03 12:10:27;;;;;;;3.83;3.15;;;35.30;26.90;;;;;;4993544;28;20041;-14
2022/05/03 12:13:06;;;;;;;6.13;3.05;;;35.60;25.70;;;;;;4994139;28;20536;-14
2022/05/03 12:15:35;;;;;;;5.35;3.30;;;35.70;25.60;;;;;;4994320;28;20050;-14
2022/05/03 12:18:13;;;;;;;5.75;3.40;;;35.80;24.80;;;;;;4993733;28;20026;-14
2022/05/03 12:20:46;;;;;;;3.17;2.72;;;35.60;24.10;;;;;;4993202;28;20054;-17
2022/05/03 12:23:18;;;;;;;3.40;3.10;;;35.40;25.00;;;;;;4993672;28;20030;-14
2022/05/03 12:25:50;;;;;;;7.63;3.65;;;35.50;24.80;;;;;;4993642;28;20439;-14
2022/05/03 12:28:17;;;;;;;5.13;3.00;;;35.10;25.00;;;;;;4997211;28;20042;-14
2022/05/03 12:30:44;;;;;;;4.85;3.33;;;35.00;24.90;;;;;;4997047;28;20037;-15
2022/05/03 12:33:14;;;;;;;4.35;3.17;;;35.00;24.60;;;;;;4996970;28;20034;-15
2022/05/03 12:35:43;;;;;;;3.72;2.63;;;35.00;24.20;;;;;;4996902;28;20033;-14
2022/05/03 12:38:14;;;;;;;4.00;2.70;;;35.00;24.60;;;;;;4996957;28;20422;-14
2022/05/03 12:40:51;;;;;;;3.83;2.80;;;34.90;25.00;;;;;;4997554;28;20019;-13
2022/05/03 12:43:26;;;;;;;4.97;3.28;;;34.90;25.20;;;;;;4997180;28;20073;-13
2022/05/03 12:46:03;;;;;;;4.85;3.00;;;35.00;25.10;;;;;;4995407;28;20401;-15
2022/05/03 12:48:36;;;;;;;4.20;3.00;;;34.70;25.60;;;;;;4996699;28;20026;-14
2022/05/03 12:51:03;;;;;;;6.47;3.80;;;34.30;25.70;;;;;;4996556;28;20037;-14
2022/05/03 12:53:33;;;;;;;3.92;3.20;;;34.20;26.00;;;;;;4996828;28;20106;-13
2022/05/03 12:58:21;;;;;;;5.10;3.67;;;34.20;25.70;;;;;;4996558;28;20101;-14
2022/05/03 12:58:48;;;;;;;6.18;3.53;;;34.30;26.00;;;;;;4996524;28;20030;-14
2022/05/03 13:01:14;;;;;;;5.72;3.05;;;34.30;25.80;;;;;;4996563;28;20053;-14
2022/05/03 13:03:46;;;;;;;4.60;3.40;;;33.90;25.90;;;;;;4996392;28;20033;-14
2022/05/03 13:06:12;;;;;;;4.57;2.95;;;33.10;26.40;;;;;;4996526;28;20041;-16
2022/05/03 13:08:38;;;;;;;5.15;3.40;;;32.40;28.20;;;;;;4996081;28;20393;-14
2022/05/03 13:11:04;;;;;;;6.00;3.80;;;32.50;27.90;;;;;;4996542;28;20030;-14
2022/05/03 13:13:30;;;;;;;5.72;3.78;;;33.00;27.30;;;;;;4996507;28;20027;-13
2022/05/03 13:15:55;;;;;;;6.72;4.10;;;33.10;28.00;;;;;;4996570;28;20027;-15
2022/05/03 13:18:21;;;;;;;4.32;3.92;;;33.40;28.20;;;;;;4996355;28;20045;-14
2022/05/03 13:20:47;;;;;;;5.85;3.83;;;33.70;28.00;;;;;;4995846;28;20462;-14
2022/05/03 13:23:14;;;;;;;5.93;3.50;;;34.00;27.00;;;;;;4996383;28;20030;-14
2022/05/03 13:25:40;;;;;;;6.10;3.70;;;33.90;27.70;;;;;;4996296;28;20062;-14
2022/05/03 13:28:07;;;;;;;4.78;3.25;;;34.00;27.30;;;;;;4996348;28;20022;-15
2022/05/03 13:30:33;;;;;;;5.50;3.50;;;33.90;26.90;;;;;;4996042;28;20092;-14
2022/05/03 13:33:00;;;;;;;4.80;3.70;;;33.80;26.80;;;;;;4996344;28;20022;-16
2022/05/03 13:40:57;;;;;;;5.32;3.72;;;33.20;27.20;;;;;;4996171;28;20100;-13
2022/05/03 13:43:22;;;;;;;6.22;3.70;;;33.00;27.60;;;;;;4996035;28;20033;-15
2022/05/03 13:45:49;;;;;;;4.53;3.22;;;32.90;27.40;;;;;;4995921;28;20035;-14